KRDK

Red Oak Municipal Airport

Red Oak, Iowa, USA
METAR KRDK 200115Z AUTO 20006KT 10SM SCT250 BKN270 03/M01 A2975 RMK AO2
Observed Flight Rules
Jan-20 @ 01:15 UTC (9 minutes ago) Visual Flight Rules
Wind Visibility Clouds
200° at 6 knots 10 miles
  • Scattered at 25,000' AGL
  • Broken at 27,000' AGL
Temperatures Readings
Current 3°C / 37°F
Dewpoint -1°C / 30°F
Humidity 75%
Altimeter 29.75" Hg
Pressure 1007 hPa
Elevation 318
METAR KRDK 200115Z AUTO 20006KT 10SM SCT250 BKN270 03/M01 A2975 RMK AO2
Observed Flight Rules
Jan-20 @ 01:15 UTC
(9 minutes ago)
VFR
Wind Visibility
200° at 6 knots 10 miles
Clouds
  • Scattered at 25,000' AGL
  • Broken at 27,000' AGL
Temperature Dewpoint
3°C / 37°F -1°C / 30°F
Humidity Altimeter Pressure
75% 29.75" Hg 1007 hPa